Time;durP1;ratioP1;P1;durP2;ratioP2;P2;SDS_P1;SDS_P2;PMS_P1;PMS_P2;Temp;Humidity;BMP_temperature;BMP_pressure;BME280_temperature;BME280_humidity;BME280_pressure;Samples;Min_cycle;Max_cycle;Signal;HPM_P1;HPM_P2
2023/09/27 00:01:04;;;;;;;;;;;;;;;;;;5037295;28;20498;-72
2023/09/27 00:03:30;;;;;;;;;;;;;;;;;;5050184;28;19993;-73
2023/09/27 00:05:56;;;;;;;;;;;;;;;;;;5054074;28;20120;-72
2023/09/27 00:08:22;;;;;;;;;;;;;;;;;;5054111;28;19990;-72
2023/09/27 00:10:48;;;;;;;;;;;;;;;;;;5054108;28;19986;-71
2023/09/27 00:13:14;;;;;;;;;;;;;;;;;;5054246;28;20040;-74
2023/09/27 00:15:40;;;;;;;;;;;;;;;;;;5054221;28;20012;-72
2023/09/27 00:18:06;;;;;;;;;;;;;;;;;;5052921;28;19996;-71
2023/09/27 00:20:32;;;;;;;;;;;;;;;;;;5052654;28;20020;-72
2023/09/27 00:22:58;;;;;;;;;;;;;;;;;;5054038;28;20033;-73
2023/09/27 00:25:24;;;;;;;;;;;;;;;;;;5053909;28;20521;-72
2023/09/27 00:27:50;;;;;;;;;;;;;;;;;;5053994;28;20446;-71
2023/09/27 00:30:16;;;;;;;;;;;;;;;;;;5053767;28;20558;-73
2023/09/27 00:32:44;;;;;;;;;;;;;;;;;;5053690;28;19990;-71
2023/09/27 00:35:14;;;;;;;;;;;;;;;;;;5054074;28;19990;-72
2023/09/27 00:37:40;;;;;;;;;;;;;;;;;;5045612;28;19993;-72
2023/09/27 00:40:10;;;;;;;;;;;;;;;;;;5033959;28;20014;-72
2023/09/27 00:42:36;;;;;;;;;;;;;;;;;;5033494;28;19990;-72
2023/09/27 00:45:03;;;;;;;;;;;;;;;;;;5033403;28;20049;-72
2023/09/27 00:47:29;;;;;;;;;;;;;;;;;;5033745;28;20071;-73
2023/09/27 00:49:55;;;;;;;;;;;;;;;;;;5033763;28;19982;-72
2023/09/27 00:52:21;;;;;;;;;;;;;;;;;;5033647;28;19989;-72
2023/09/27 00:54:47;;;;;;;;;;;;;;;;;;5038323;28;20005;-74
2023/09/27 00:57:13;;;;;;;;;;;;;;;;;;5053257;28;19988;-73
2023/09/27 00:59:39;;;;;;;;;;;;;;;;;;5053781;28;20010;-72
2023/09/27 01:02:05;;;;;;;;;;;;;;;;;;5053611;28;19996;-72
2023/09/27 01:04:31;;;;;;;;;;;;;;;;;;5053259;28;20063;-72
2023/09/27 01:06:57;;;;;;;;;;;;;;;;;;5052812;28;19997;-71
2023/09/27 01:09:22;;;;;;;;;;;;;;;;;;5053174;28;19993;-72
2023/09/27 01:11:48;;;;;;;;;;;;;;;;;;5052055;28;19985;-73
2023/09/27 01:14:14;;;;;;;;;;;;;;;;;;5052993;28;19986;-73
2023/09/27 01:16:41;;;;;;;;;;;;;;;;;;5050829;28;20005;-71
2023/09/27 01:19:08;;;;;;;;;;;;;;;;;;5052984;28;19985;-71
2023/09/27 01:21:34;;;;;;;;;;;;;;;;;;5053075;28;19985;-72
2023/09/27 01:24:00;;;;;;;;;;;;;;;;;;5052976;28;20009;-72
2023/09/27 01:26:26;;;;;;;;;;;;;;;;;;5051318;28;20095;-71
2023/09/27 01:28:52;;;;;;;;;;;;;;;;;;5051390;28;20423;-72
2023/09/27 01:31:18;;;;;;;;;;;;;;;;;;5052500;28;19986;-72
2023/09/27 01:33:44;;;;;;;;;;;;;;;;;;5052665;28;20080;-73
2023/09/27 01:36:11;;;;;;;;;;;;;;;;;;5052693;28;19985;-72
2023/09/27 01:38:38;;;;;;;;;;;;;;;;;;5052796;28;19986;-73
2023/09/27 01:41:04;;;;;;;;;;;;;;;;;;5052101;28;20370;-72
2023/09/27 01:43:30;;;;;;;;;;;;;;;;;;5052257;28;19998;-72
2023/09/27 01:45:56;;;;;;;;;;;;;;;;;;5050787;28;19989;-71
2023/09/27 01:48:22;;;;;;;;;;;;;;;;;;5032490;28;20044;-72
2023/09/27 01:50:48;;;;;;;;;;;;;;;;;;5032318;28;19982;-71
2023/09/27 01:53:14;;;;;;;;;;;;;;;;;;5032153;28;20048;-71
2023/09/27 01:55:40;;;;;;;;;;;;;;;;;;5032374;28;19986;-72
2023/09/27 01:58:06;;;;;;;;;;;;;;;;;;5032228;28;20343;-72
2023/09/27 02:00:32;;;;;;;;;;;;;;;;;;5032170;28;20079;-71
2023/09/27 02:02:58;;;;;;;;;;;;;;;;;;5033528;28;19994;-72
2023/09/27 02:05:25;;;;;;;;;;;;;;;;;;5051901;28;20009;-71
2023/09/27 02:07:51;;;;;;;;;;;;;;;;;;5051841;28;20430;-72
2023/09/27 02:10:17;;;;;;;;;;;;;;;;;;5051920;28;19990;-72
2023/09/27 02:12:43;;;;;;;;;;;;;;;;;;5052132;28;19993;-72
2023/09/27 02:15:09;;;;;;;;;;;;;;;;;;5041248;28;19986;-71
2023/09/27 02:17:41;;;;;;;;;;;;;;;;;;5032008;28;19993;-71
2023/09/27 02:20:07;;;;;;;;;;;;;;;;;;5031723;28;20017;-72
2023/09/27 02:22:33;;;;;;;;;;;;;;;;;;5031972;28;19986;-72
2023/09/27 02:24:59;;;;;;;;;;;;;;;;;;5031779;28;19993;-72
2023/09/27 02:27:25;;;;;;;;;;;;;;;;;;5031094;28;20073;-71
2023/09/27 02:29:51;;;;;;;;;;;;;;;;;;5030487;28;19986;-73
2023/09/27 02:32:20;;;;;;;;;;;;;;;;;;5035373;28;20051;-72
2023/09/27 02:34:47;;;;;;;;;;;;;;;;;;5051566;28;19992;-72
2023/09/27 02:37:15;;;;;;;;;;;;;;;;;;5051236;28;20583;-72
2023/09/27 02:39:41;;;;;;;;;;;;;;;;;;5051492;28;20009;-70
2023/09/27 02:42:07;;;;;;;;;;;;;;;;;;5051728;28;19986;-72
2023/09/27 02:44:33;;;;;;;;;;;;;;;;;;5051189;28;20109;-71
2023/09/27 02:46:59;;;;;;;;;;;;;;;;;;5051637;28;19989;-71
2023/09/27 02:49:25;;;;;;;;;;;;;;;;;;5051084;28;19981;-73
2023/09/27 02:51:55;;;;;;;;;;;;;;;;;;5032995;28;19994;-72
2023/09/27 02:54:21;;;;;;;;;;;;;;;;;;5031564;28;20104;-71
2023/09/27 02:56:47;;;;;;;;;;;;;;;;;;5031558;28;20552;-72
2023/09/27 02:59:13;;;;;;;;;;;;;;;;;;5031532;28;20048;-72
2023/09/27 03:01:40;;;;;;;;;;;;;;;;;;5030985;28;20466;-72
2023/09/27 03:04:06;;;;;;;;;;;;;;;;;;5031415;28;20073;-72
2023/09/27 03:06:33;;;;;;;;;;;;;;;;;;5031274;28;20013;-71
2023/09/27 03:08:59;;;;;;;;;;;;;;;;;;5043093;28;20381;-71
2023/09/27 03:11:25;;;;;;;;;;;;;;;;;;5051045;28;19981;-72
2023/09/27 03:13:51;;;;;;;;;;;;;;;;;;5051033;28;20029;-72
2023/09/27 03:16:17;;;;;;;;;;;;;;;;;;5051265;28;19986;-71
2023/09/27 03:18:43;;;;;;;;;;;;;;;;;;5051297;28;19989;-71
2023/09/27 03:21:09;;;;;;;;;;;;;;;;;;5051179;28;20526;-72
2023/09/27 03:23:35;;;;;;;;;;;;;;;;;;5050778;28;19982;-71
2023/09/27 03:26:03;;;;;;;;;;;;;;;;;;5044526;28;19986;-72
2023/09/27 03:28:29;;;;;;;;;;;;;;;;;;5031220;28;19987;-73
2023/09/27 03:30:55;;;;;;;;;;;;;;;;;;5031172;28;19989;-71
2023/09/27 03:33:21;;;;;;;;;;;;;;;;;;5031171;28;20011;-72
2023/09/27 03:35:47;;;;;;;;;;;;;;;;;;5030617;28;20021;-72
2023/09/27 03:38:13;;;;;;;;;;;;;;;;;;5031730;28;20045;-71
2023/09/27 03:40:39;;;;;;;;;;;;;;;;;;5034780;28;20056;-73
2023/09/27 03:43:05;;;;;;;;;;;;;;;;;;5050305;28;19990;-72
2023/09/27 03:45:31;;;;;;;;;;;;;;;;;;5054385;28;20022;-71
2023/09/27 03:47:57;;;;;;;;;;;;;;;;;;5054324;28;20351;-72
2023/09/27 03:50:23;;;;;;;;;;;;;;;;;;5055009;28;20128;-73
2023/09/27 03:52:49;;;;;;;;;;;;;;;;;;5054937;28;19986;-71
2023/09/27 03:55:15;;;;;;;;;;;;;;;;;;5054746;28;19992;-72
2023/09/27 03:57:41;;;;;;;;;;;;;;;;;;5052909;28;19990;-71
2023/09/27 04:00:17;;;;;;;;;;;;;;;;;;5054121;28;20012;-72
2023/09/27 04:02:44;;;;;;;;;;;;;;;;;;5054585;28;20068;-73
2023/09/27 04:05:10;;;;;;;;;;;;;;;;;;5054547;28;20516;-73
2023/09/27 04:07:36;;;;;;;;;;;;;;;;;;5054598;28;20408;-71
2023/09/27 04:10:02;;;;;;;;;;;;;;;;;;5054015;28;20439;-71
2023/09/27 04:12:28;;;;;;;;;;;;;;;;;;5054503;28;20021;-72
2023/09/27 04:14:53;;;;;;;;;;;;;;;;;;5039211;28;20084;-71
2023/09/27 04:17:20;;;;;;;;;;;;;;;;;;5034407;28;19986;-71
2023/09/27 04:19:46;;;;;;;;;;;;;;;;;;5034578;28;20017;-70
2023/09/27 04:22:11;;;;;;;;;;;;;;;;;;5033870;28;20203;-71
2023/09/27 04:24:37;;;;;;;;;;;;;;;;;;5034230;28;19982;-70
2023/09/27 04:27:03;;;;;;;;;;;;;;;;;;5034177;28;20044;-70
2023/09/27 04:29:30;;;;;;;;;;;;;;;;;;5034239;28;20106;-71
2023/09/27 04:31:56;;;;;;;;;;;;;;;;;;5044487;28;20591;-71
2023/09/27 04:34:23;;;;;;;;;;;;;;;;;;5052277;28;20354;-71
2023/09/27 04:36:50;;;;;;;;;;;;;;;;;;5053779;28;19992;-70
2023/09/27 04:39:17;;;;;;;;;;;;;;;;;;5053634;28;19993;-70
2023/09/27 04:41:43;;;;;;;;;;;;;;;;;;5053849;28;19996;-71
2023/09/27 04:44:09;;;;;;;;;;;;;;;;;;5053084;28;20022;-71
2023/09/27 04:46:35;;;;;;;;;;;;;;;;;;5048201;28;20073;-71
2023/09/27 04:49:02;;;;;;;;;;;;;;;;;;5033617;28;20021;-72
2023/09/27 04:51:29;;;;;;;;;;;;;;;;;;5033675;28;20568;-71
2023/09/27 04:54:00;;;;;;;;;;;;;;;;;;5033555;28;20430;-73
2023/09/27 04:56:26;;;;;;;;;;;;;;;;;;5033123;28;19986;-71
2023/09/27 04:58:52;;;;;;;;;;;;;;;;;;5033410;28;19989;-72
2023/09/27 05:01:18;;;;;;;;;;;;;;;;;;5033405;28;20016;-71
2023/09/27 05:03:44;;;;;;;;;;;;;;;;;;5037409;28;19985;-71
2023/09/27 05:06:10;;;;;;;;;;;;;;;;;;5053207;28;20002;-71
2023/09/27 05:08:36;;;;;;;;;;;;;;;;;;5052926;28;20005;-72
2023/09/27 05:11:02;;;;;;;;;;;;;;;;;;5051059;28;19985;-72
2023/09/27 05:13:28;;;;;;;;;;;;;;;;;;5052645;28;20073;-73
2023/09/27 05:15:54;;;;;;;;;;;;;;;;;;5052781;28;20461;-70
2023/09/27 05:18:22;;;;;;;;;;;;;;;;;;5052847;28;19993;-72
2023/09/27 05:20:48;;;;;;;;;;;;;;;;;;5053095;28;20619;-71
2023/09/27 05:23:14;;;;;;;;;;;;;;;;;;5032786;28;19990;-72
2023/09/27 05:25:40;;;;;;;;;;;;;;;;;;5035023;28;19986;-72
2023/09/27 05:28:07;;;;;;;;;;;;;;;;;;5051919;28;20040;-72
2023/09/27 05:30:33;;;;;;;;;;;;;;;;;;5052017;28;20414;-71
2023/09/27 05:32:59;;;;;;;;;;;;;;;;;;5072366;28;20025;-72
2023/09/27 05:35:24;;;;;;;;;;;;;;;;;;5055354;28;19986;-71
2023/09/27 05:37:50;;;;;;;;;;;;;;;;;;5051134;28;20339;-72
2023/09/27 05:40:16;;;;;;;;;;;;;;;;;;5051692;28;20010;-72
2023/09/27 05:42:42;;;;;;;;;;;;;;;;;;5052311;28;20051;-72
2023/09/27 05:45:11;;;;;;;;;;;;;;;;;;5052182;28;20026;-70
2023/09/27 05:47:37;;;;;;;;;;;;;;;;;;5051963;28;19989;-72
2023/09/27 05:50:04;;;;;;;;;;;;;;;;;;5050660;28;19986;-72
2023/09/27 05:52:30;;;;;;;;;;;;;;;;;;5050678;28;19985;-72
2023/09/27 05:54:56;;;;;;;;;;;;;;;;;;5049381;28;19989;-72
2023/09/27 05:57:22;;;;;;;;;;;;;;;;;;5051152;28;20100;-72
2023/09/27 05:59:48;;;;;;;;;;;;;;;;;;5050756;28;20111;-73
2023/09/27 06:02:17;;;;;;;;;;;;;;;;;;5049903;28;19985;-73
2023/09/27 06:04:43;;;;;;;;;;;;;;;;;;5051444;28;20464;-73
2023/09/27 06:07:13;;;;;;;;;;;;;;;;;;5052071;28;19989;-73
2023/09/27 06:09:39;;;;;;;;;;;;;;;;;;5042433;28;19997;-73
2023/09/27 06:12:05;;;;;;;;;;;;;;;;;;5032318;28;20359;-74
2023/09/27 06:14:31;;;;;;;;;;;;;;;;;;5032009;28;20430;-74
2023/09/27 06:16:58;;;;;;;;;;;;;;;;;;5031763;28;19993;-73
2023/09/27 06:19:24;;;;;;;;;;;;;;;;;;5031684;28;20010;-70
2023/09/27 06:21:50;;;;;;;;;;;;;;;;;;5032189;28;20025;-73
2023/09/27 06:24:16;;;;;;;;;;;;;;;;;;5033740;28;20011;-72
2023/09/27 06:26:42;;;;;;;;;;;;;;;;;;5050279;28;20076;-72
2023/09/27 06:29:09;;;;;;;;;;;;;;;;;;5050546;28;20035;-73
2023/09/27 06:31:35;;;;;;;;;;;;;;;;;;5050297;28;19986;-73
2023/09/27 06:34:01;;;;;;;;;;;;;;;;;;5051444;28;20476;-73
2023/09/27 06:36:29;;;;;;;;;;;;;;;;;;5050326;28;19993;-74
2023/09/27 06:38:55;;;;;;;;;;;;;;;;;;5051315;28;20456;-73
2023/09/27 06:41:21;;;;;;;;;;;;;;;;;;5051916;28;20018;-73
2023/09/27 06:43:48;;;;;;;;;;;;;;;;;;5034216;28;20018;-72
2023/09/27 06:46:15;;;;;;;;;;;;;;;;;;5036918;28;20082;-73
2023/09/27 06:48:41;;;;;;;;;;;;;;;;;;5051341;28;19986;-73
2023/09/27 06:51:07;;;;;;;;;;;;;;;;;;5051821;28;20027;-73
2023/09/27 06:53:33;;;;;;;;;;;;;;;;;;5051447;28;19990;-73
2023/09/27 06:55:59;;;;;;;;;;;;;;;;;;5051105;28;20465;-73
2023/09/27 06:58:25;;;;;;;;;;;;;;;;;;5051363;28;19993;-73
2023/09/27 07:00:51;;;;;;;;;;;;;;;;;;5051444;28;20377;-73
2023/09/27 07:03:19;;;;;;;;;;;;;;;;;;5050210;28;19990;-71
2023/09/27 07:05:46;;;;;;;;;;;;;;;;;;5051310;28;20001;-72
2023/09/27 07:08:12;;;;;;;;;;;;;;;;;;5051501;28;20073;-74
2023/09/27 07:10:38;;;;;;;;;;;;;;;;;;5051190;28;20026;-72
2023/09/27 07:13:04;;;;;;;;;;;;;;;;;;5053297;28;20080;-73
2023/09/27 07:15:30;;;;;;;;;;;;;;;;;;5051734;28;19993;-73
2023/09/27 07:17:57;;;;;;;;;;;;;;;;;;5055096;28;20039;-72
2023/09/27 07:20:32;;;;;;;;;;;;;;;;;;5035929;28;20010;-73
2023/09/27 07:22:58;;;;;;;;;;;;;;;;;;5035137;28;20438;-71
2023/09/27 07:25:25;;;;;;;;;;;;;;;;;;5033554;28;19983;-72
2023/09/27 07:27:51;;;;;;;;;;;;;;;;;;5034558;28;19986;-73
2023/09/27 07:30:23;;;;;;;;;;;;;;;;;;5035212;28;20040;-73
2023/09/27 07:32:49;;;;;;;;;;;;;;;;;;5035288;28;19986;-73
2023/09/27 07:35:16;;;;;;;;;;;;;;;;;;5034854;28;20044;-73
2023/09/27 07:37:43;;;;;;;;;;;;;;;;;;5053001;28;20488;-73
2023/09/27 07:40:09;;;;;;;;;;;;;;;;;;5055072;28;20053;-72
2023/09/27 07:42:35;;;;;;;;;;;;;;;;;;5055003;28;19988;-72
2023/09/27 07:45:02;;;;;;;;;;;;;;;;;;5054694;28;20116;-73
2023/09/27 07:47:28;;;;;;;;;;;;;;;;;;5054770;28;19982;-73
2023/09/27 07:49:54;;;;;;;;;;;;;;;;;;5054742;28;19986;-72
2023/09/27 07:52:20;;;;;;;;;;;;;;;;;;5053166;28;20080;-73
2023/09/27 07:54:46;;;;;;;;;;;;;;;;;;5035353;28;20080;-71
2023/09/27 07:57:14;;;;;;;;;;;;;;;;;;5034729;28;20008;-72
2023/09/27 07:59:40;;;;;;;;;;;;;;;;;;5034462;28;20006;-72
2023/09/27 08:02:05;;;;;;;;;;;;;;;;;;5035051;28;20051;-71
2023/09/27 08:04:32;;;;;;;;;;;;;;;;;;5034408;28;19982;-71
2023/09/27 08:06:57;;;;;;;;;;;;;;;;;;5034710;28;20122;-72
2023/09/27 08:09:24;;;;;;;;;;;;;;;;;;5034366;28;20021;-72
2023/09/27 08:11:50;;;;;;;;;;;;;;;;;;5034147;28;20084;-71
2023/09/27 08:14:18;;;;;;;;;;;;;;;;;;5034276;28;19987;-71
2023/09/27 08:16:44;;;;;;;;;;;;;;;;;;5033795;28;19998;-72
2023/09/27 08:19:10;;;;;;;;;;;;;;;;;;5034423;28;20064;-73
2023/09/27 08:21:36;;;;;;;;;;;;;;;;;;5034329;28;19991;-73
2023/09/27 08:24:02;;;;;;;;;;;;;;;;;;5033012;28;19990;-72
2023/09/27 08:26:28;;;;;;;;;;;;;;;;;;5034256;28;20084;-72
2023/09/27 08:28:53;;;;;;;;;;;;;;;;;;5034058;28;19996;-72
2023/09/27 08:31:19;;;;;;;;;;;;;;;;;;5051399;28;20180;-72
2023/09/27 08:33:45;;;;;;;;;;;;;;;;;;5054128;28;20407;-72
2023/09/27 08:36:11;;;;;;;;;;;;;;;;;;5053503;28;19981;-72
2023/09/27 08:38:37;;;;;;;;;;;;;;;;;;5053677;28;20016;-72
2023/09/27 08:41:06;;;;;;;;;;;;;;;;;;5053991;28;20009;-72
2023/09/27 08:43:32;;;;;;;;;;;;;;;;;;5053387;28;20017;-71
2023/09/27 08:45:58;;;;;;;;;;;;;;;;;;5048892;28;20037;-72
2023/09/27 08:48:24;;;;;;;;;;;;;;;;;;5033474;28;19997;-71
2023/09/27 08:50:50;;;;;;;;;;;;;;;;;;5033628;28;19989;-73
2023/09/27 08:53:16;;;;;;;;;;;;;;;;;;5033742;28;19986;-71
2023/09/27 08:55:42;;;;;;;;;;;;;;;;;;5033557;28;20109;-72
2023/09/27 08:58:08;;;;;;;;;;;;;;;;;;5033034;28;19986;-72
2023/09/27 09:00:34;;;;;;;;;;;;;;;;;;5033258;28;20010;-71
2023/09/27 09:03:00;;;;;;;;;;;;;;;;;;5038819;28;20339;-72
2023/09/27 09:05:27;;;;;;;;;;;;;;;;;;5053348;28;20101;-71
2023/09/27 09:07:54;;;;;;;;;;;;;;;;;;5051919;28;20035;-72
2023/09/27 09:10:22;;;;;;;;;;;;;;;;;;5053028;28;19985;-74
2023/09/27 09:12:48;;;;;;;;;;;;;;;;;;5053095;28;19986;-73
2023/09/27 09:15:15;;;;;;;;;;;;;;;;;;5052877;28;20358;-73
2023/09/27 09:17:47;;;;;;;;;;;;;;;;;;5053074;28;19986;-73
2023/09/27 09:20:21;;;;;;;;;;;;;;;;;;5050437;28;20024;-71
2023/09/27 09:22:50;;;;;;;;;;;;;;;;;;5052533;28;20377;-72
2023/09/27 09:25:15;;;;;;;;;;;;;;;;;;5052941;28;20441;-73
2023/09/27 09:27:41;;;;;;;;;;;;;;;;;;5052779;28;19992;-73
2023/09/27 09:30:09;;;;;;;;;;;;;;;;;;5052647;28;19993;-73
2023/09/27 09:32:36;;;;;;;;;;;;;;;;;;5052706;28;20333;-72
2023/09/27 09:35:02;;;;;;;;;;;;;;;;;;5051410;28;20459;-72
2023/09/27 09:37:29;;;;;;;;;;;;;;;;;;5031845;28;19994;-72
2023/09/27 09:39:55;;;;;;;;;;;;;;;;;;5032609;28;20094;-72
2023/09/27 09:42:21;;;;;;;;;;;;;;;;;;5032522;28;20415;-72
2023/09/27 09:44:47;;;;;;;;;;;;;;;;;;5031828;28;20022;-72
2023/09/27 09:47:14;;;;;;;;;;;;;;;;;;5032660;28;19996;-72
2023/09/27 09:49:41;;;;;;;;;;;;;;;;;;5031200;28;20073;-72
2023/09/27 09:52:08;;;;;;;;;;;;;;;;;;5032320;28;20439;-72
2023/09/27 09:54:34;;;;;;;;;;;;;;;;;;5044185;28;20000;-72
2023/09/27 09:57:01;;;;;;;;;;;;;;;;;;5052469;28;19982;-72
2023/09/27 09:59:28;;;;;;;;;;;;;;;;;;5052146;28;20073;-72
2023/09/27 10:01:54;;;;;;;;;;;;;;;;;;5051668;28;19986;-72
2023/09/27 10:04:20;;;;;;;;;;;;;;;;;;5052380;28;19982;-71
2023/09/27 10:06:46;;;;;;;;;;;;;;;;;;5052001;28;20365;-72
2023/09/27 10:09:13;;;;;;;;;;;;;;;;;;5050803;28;19985;-73
2023/09/27 10:11:39;;;;;;;;;;;;;;;;;;5052208;28;19986;-72
2023/09/27 10:14:05;;;;;;;;;;;;;;;;;;5051773;28;19990;-72
2023/09/27 10:16:31;;;;;;;;;;;;;;;;;;5052043;28;19989;-72
2023/09/27 10:18:57;;;;;;;;;;;;;;;;;;5051720;28;19982;-73
2023/09/27 10:21:23;;;;;;;;;;;;;;;;;;5051721;28;20524;-73
2023/09/27 10:23:50;;;;;;;;;;;;;;;;;;5051761;28;20343;-72
2023/09/27 10:26:16;;;;;;;;;;;;;;;;;;5040884;28;19990;-72
2023/09/27 10:28:42;;;;;;;;;;;;;;;;;;5030348;28;20403;-71
2023/09/27 10:31:09;;;;;;;;;;;;;;;;;;5031679;28;20028;-71
2023/09/27 10:33:35;;;;;;;;;;;;;;;;;;5031479;28;20448;-71
2023/09/27 10:36:01;;;;;;;;;;;;;;;;;;5031639;28;19986;-71
2023/09/27 10:38:27;;;;;;;;;;;;;;;;;;5031633;28;19986;-72
2023/09/27 10:40:55;;;;;;;;;;;;;;;;;;5031642;28;20485;-73
2023/09/27 10:43:21;;;;;;;;;;;;;;;;;;5031468;28;20052;-72
2023/09/27 10:45:47;;;;;;;;;;;;;;;;;;5042314;28;20001;-72
2023/09/27 10:48:14;;;;;;;;;;;;;;;;;;5051136;28;20028;-72
2023/09/27 10:50:40;;;;;;;;;;;;;;;;;;5051561;28;19985;-71
2023/09/27 10:53:06;;;;;;;;;;;;;;;;;;5051328;28;19989;-71
2023/09/27 10:55:31;;;;;;;;;;;;;;;;;;5051205;28;19993;-72
2023/09/27 10:57:57;;;;;;;;;;;;;;;;;;5051114;28;20028;-71
2023/09/27 11:00:23;;;;;;;;;;;;;;;;;;5050216;28;20013;-71
2023/09/27 11:02:50;;;;;;;;;;;;;;;;;;5051509;28;20476;-72
2023/09/27 11:05:15;;;;;;;;;;;;;;;;;;5051409;28;19998;-72
2023/09/27 11:07:41;;;;;;;;;;;;;;;;;;5051255;28;19989;-72
2023/09/27 11:10:07;;;;;;;;;;;;;;;;;;5051160;28;19993;-74
2023/09/27 11:12:33;;;;;;;;;;;;;;;;;;5051345;28;19985;-72
2023/09/27 11:14:59;;;;;;;;;;;;;;;;;;5051154;28;20472;-73
2023/09/27 11:17:25;;;;;;;;;;;;;;;;;;5051422;28;19990;-71
2023/09/27 11:19:51;;;;;;;;;;;;;;;;;;5049776;28;20522;-72
2023/09/27 11:22:17;;;;;;;;;;;;;;;;;;5051247;28;20369;-72
2023/09/27 11:24:43;;;;;;;;;;;;;;;;;;5051256;28;19986;-72
2023/09/27 11:27:11;;;;;;;;;;;;;;;;;;5051303;28;19993;-71
2023/09/27 11:29:37;;;;;;;;;;;;;;;;;;5051317;28;20047;-72
2023/09/27 11:32:03;;;;;;;;;;;;;;;;;;5049844;28;19986;-73
2023/09/27 11:34:30;;;;;;;;;;;;;;;;;;5049724;28;19990;-72
2023/09/27 11:36:57;;;;;;;;;;;;;;;;;;5050857;28;19985;-72
2023/09/27 11:39:23;;;;;;;;;;;;;;;;;;5050923;28;19985;-73
2023/09/27 11:41:49;;;;;;;;;;;;;;;;;;5051522;28;19985;-72
2023/09/27 11:44:15;;;;;;;;;;;;;;;;;;5050380;28;20021;-72
2023/09/27 11:46:41;;;;;;;;;;;;;;;;;;5051042;28;19993;-73
2023/09/27 11:49:10;;;;;;;;;;;;;;;;;;5049532;28;20456;-72
2023/09/27 11:51:36;;;;;;;;;;;;;;;;;;5050991;28;20086;-72
2023/09/27 11:54:02;;;;;;;;;;;;;;;;;;5050852;28;20028;-72
2023/09/27 11:56:28;;;;;;;;;;;;;;;;;;5050714;28;19992;-72
2023/09/27 11:58:54;;;;;;;;;;;;;;;;;;5050980;28;19990;-72
2023/09/27 12:01:20;;;;;;;;;;;;;;;;;;5051658;28;20485;-72
2023/09/27 12:03:46;;;;;;;;;;;;;;;;;;5054189;28;20081;-72
2023/09/27 12:06:12;;;;;;;;;;;;;;;;;;5054277;28;20425;-72
2023/09/27 12:08:38;;;;;;;;;;;;;;;;;;5051164;28;20050;-71
2023/09/27 12:11:04;;;;;;;;;;;;;;;;;;5054363;28;20013;-71
2023/09/27 12:13:30;;;;;;;;;;;;;;;;;;5054154;28;20422;-72
2023/09/27 12:15:56;;;;;;;;;;;;;;;;;;5054653;28;19986;-73
2023/09/27 12:18:22;;;;;;;;;;;;;;;;;;5053859;28;19986;-72
2023/09/27 12:20:48;;;;;;;;;;;;;;;;;;5054115;28;20465;-73
2023/09/27 12:23:14;;;;;;;;;;;;;;;;;;5053078;28;20144;-72
2023/09/27 12:25:40;;;;;;;;;;;;;;;;;;5053866;28;19989;-72
2023/09/27 12:28:06;;;;;;;;;;;;;;;;;;5054105;28;19986;-72
2023/09/27 12:30:32;;;;;;;;;;;;;;;;;;5053673;28;20009;-71
2023/09/27 12:32:58;;;;;;;;;;;;;;;;;;5053388;28;19992;-71
2023/09/27 12:35:24;;;;;;;;;;;;;;;;;;5054033;28;19990;-71
2023/09/27 12:37:50;;;;;;;;;;;;;;;;;;5053765;28;20052;-72
2023/09/27 12:40:16;;;;;;;;;;;;;;;;;;5038917;28;20104;-71
2023/09/27 12:42:42;;;;;;;;;;;;;;;;;;5033641;28;20094;-71
2023/09/27 12:45:08;;;;;;;;;;;;;;;;;;5031835;28;20431;-72
2023/09/27 12:47:34;;;;;;;;;;;;;;;;;;5033662;28;19982;-72
2023/09/27 12:50:03;;;;;;;;;;;;;;;;;;5032137;28;20465;-71
2023/09/27 12:52:29;;;;;;;;;;;;;;;;;;5033693;28;20450;-71
2023/09/27 12:54:55;;;;;;;;;;;;;;;;;;5036981;28;20077;-72
2023/09/27 12:57:21;;;;;;;;;;;;;;;;;;5053433;28;19986;-72
2023/09/27 12:59:47;;;;;;;;;;;;;;;;;;5053173;28;20359;-73
2023/09/27 13:02:13;;;;;;;;;;;;;;;;;;5053371;28;20392;-72
2023/09/27 13:04:39;;;;;;;;;;;;;;;;;;5053322;28;20096;-72
2023/09/27 13:07:05;;;;;;;;;;;;;;;;;;5053004;28;19985;-71
2023/09/27 13:09:30;;;;;;;;;;;;;;;;;;5051905;28;20438;-72
2023/09/27 13:11:56;;;;;;;;;;;;;;;;;;5039086;28;19990;-72
2023/09/27 13:14:22;;;;;;;;;;;;;;;;;;5033082;28;19982;-72
2023/09/27 13:16:48;;;;;;;;;;;;;;;;;;5032960;28;20009;-73
2023/09/27 13:19:14;;;;;;;;;;;;;;;;;;5032884;28;20848;-72
2023/09/27 13:21:40;;;;;;;;;;;;;;;;;;5033008;28;20064;-72
2023/09/27 13:24:07;;;;;;;;;;;;;;;;;;5033104;28;19986;-72
2023/09/27 13:26:33;;;;;;;;;;;;;;;;;;5038173;28;19990;-71
2023/09/27 13:28:59;;;;;;;;;;;;;;;;;;5052777;28;20253;-72
2023/09/27 13:31:25;;;;;;;;;;;;;;;;;;5052547;28;19986;-73
2023/09/27 13:33:51;;;;;;;;;;;;;;;;;;5052754;28;20406;-72
2023/09/27 13:36:17;;;;;;;;;;;;;;;;;;5052649;28;20032;-72
2023/09/27 13:38:45;;;;;;;;;;;;;;;;;;5052205;28;19982;-71
2023/09/27 13:41:11;;;;;;;;;;;;;;;;;;5052646;28;20013;-71
2023/09/27 13:43:37;;;;;;;;;;;;;;;;;;5045191;28;20010;-72
2023/09/27 13:46:05;;;;;;;;;;;;;;;;;;5032311;28;20461;-72
2023/09/27 13:48:31;;;;;;;;;;;;;;;;;;5032837;28;19986;-72
2023/09/27 13:50:57;;;;;;;;;;;;;;;;;;5032454;28;19983;-72
2023/09/27 13:53:23;;;;;;;;;;;;;;;;;;5032557;28;19986;-72
2023/09/27 13:55:49;;;;;;;;;;;;;;;;;;5032399;28;20040;-72
2023/09/27 13:58:15;;;;;;;;;;;;;;;;;;5031723;28;19982;-72
2023/09/27 14:00:42;;;;;;;;;;;;;;;;;;5051918;28;20830;-72
2023/09/27 14:03:08;;;;;;;;;;;;;;;;;;5052253;28;19985;-73
2023/09/27 14:05:34;;;;;;;;;;;;;;;;;;5052922;28;20063;-71
2023/09/27 14:08:00;;;;;;;;;;;;;;;;;;5052057;28;20137;-72
2023/09/27 14:10:26;;;;;;;;;;;;;;;;;;5051645;28;19996;-72
2023/09/27 14:12:52;;;;;;;;;;;;;;;;;;5052032;28;19985;-72
2023/09/27 14:15:18;;;;;;;;;;;;;;;;;;5046674;28;19990;-73
2023/09/27 14:17:44;;;;;;;;;;;;;;;;;;5032030;28;19982;-72
2023/09/27 14:20:14;;;;;;;;;;;;;;;;;;5031867;28;20113;-72
2023/09/27 14:22:41;;;;;;;;;;;;;;;;;;5029967;28;19997;-71
2023/09/27 14:25:08;;;;;;;;;;;;;;;;;;5032138;28;19982;-71
2023/09/27 14:27:33;;;;;;;;;;;;;;;;;;5031483;28;19986;-72
2023/09/27 14:29:59;;;;;;;;;;;;;;;;;;5031727;28;20430;-72
2023/09/27 14:32:25;;;;;;;;;;;;;;;;;;5031051;28;20002;-72
2023/09/27 14:34:51;;;;;;;;;;;;;;;;;;5030658;28;19986;-71
2023/09/27 14:37:17;;;;;;;;;;;;;;;;;;5031861;28;19986;-71
2023/09/27 14:39:43;;;;;;;;;;;;;;;;;;5031676;28;20477;-73
2023/09/27 14:42:09;;;;;;;;;;;;;;;;;;5030053;28;20048;-73
2023/09/27 14:44:35;;;;;;;;;;;;;;;;;;5031423;28;20440;-72
2023/09/27 14:47:01;;;;;;;;;;;;;;;;;;5031681;28;20081;-71
2023/09/27 14:49:27;;;;;;;;;;;;;;;;;;5045429;28;20388;-72
2023/09/27 14:51:53;;;;;;;;;;;;;;;;;;5051304;28;20465;-72
2023/09/27 14:54:19;;;;;;;;;;;;;;;;;;5051259;28;20054;-72
2023/09/27 14:56:45;;;;;;;;;;;;;;;;;;5051498;28;19990;-72
2023/09/27 14:59:10;;;;;;;;;;;;;;;;;;5050177;28;20378;-72
2023/09/27 15:01:37;;;;;;;;;;;;;;;;;;5050934;28;20375;-71
2023/09/27 15:04:03;;;;;;;;;;;;;;;;;;5050205;28;20285;-73
2023/09/27 15:06:29;;;;;;;;;;;;;;;;;;5051053;28;20055;-72
2023/09/27 15:08:55;;;;;;;;;;;;;;;;;;5051251;28;19986;-72
2023/09/27 15:11:22;;;;;;;;;;;;;;;;;;5051276;28;19985;-72
2023/09/27 15:13:47;;;;;;;;;;;;;;;;;;5051232;28;20155;-72
2023/09/27 15:16:16;;;;;;;;;;;;;;;;;;5049904;28;20458;-71
2023/09/27 15:18:43;;;;;;;;;;;;;;;;;;5051316;28;19985;-72
2023/09/27 15:21:10;;;;;;;;;;;;;;;;;;5050934;28;20197;-72
2023/09/27 15:23:36;;;;;;;;;;;;;;;;;;5050997;28;19990;-72
2023/09/27 15:26:01;;;;;;;;;;;;;;;;;;5050996;28;20012;-73
2023/09/27 15:28:27;;;;;;;;;;;;;;;;;;5050885;28;20025;-72
2023/09/27 15:30:53;;;;;;;;;;;;;;;;;;5051146;28;19982;-69
2023/09/27 15:33:19;;;;;;;;;;;;;;;;;;5049638;28;20353;-71
2023/09/27 15:35:45;;;;;;;;;;;;;;;;;;5052338;28;20047;-72
2023/09/27 15:38:11;;;;;;;;;;;;;;;;;;5051349;28;19990;-73
2023/09/27 15:40:37;;;;;;;;;;;;;;;;;;5054432;28;20057;-73
2023/09/27 15:43:04;;;;;;;;;;;;;;;;;;5054605;28;20076;-72
2023/09/27 15:45:30;;;;;;;;;;;;;;;;;;5054197;28;20064;-72
2023/09/27 15:47:56;;;;;;;;;;;;;;;;;;5049481;28;20466;-73
2023/09/27 15:50:22;;;;;;;;;;;;;;;;;;5038226;28;20036;-73
2023/09/27 15:52:47;;;;;;;;;;;;;;;;;;5042321;28;20040;-72
2023/09/27 15:55:15;;;;;;;;;;;;;;;;;;5042738;28;20077;-74
2023/09/27 15:57:42;;;;;;;;;;;;;;;;;;5043088;28;20049;-72
2023/09/27 16:00:08;;;;;;;;;;;;;;;;;;5044211;28;19998;-75
2023/09/27 16:02:34;;;;;;;;;;;;;;;;;;5044310;28;20069;-73
2023/09/27 16:05:00;;;;;;;;;;;;;;;;;;5042618;28;20401;-74
2023/09/27 16:07:25;;;;;;;;;;;;;;;;;;5044222;28;19992;-74
2023/09/27 16:09:51;;;;;;;;;;;;;;;;;;5043892;28;20093;-74
2023/09/27 16:12:18;;;;;;;;;;;;;;;;;;5043588;28;20473;-73
2023/09/27 16:14:44;;;;;;;;;;;;;;;;;;5033965;28;20029;-73
2023/09/27 16:17:10;;;;;;;;;;;;;;;;;;5033924;28;20098;-73
2023/09/27 16:19:36;;;;;;;;;;;;;;;;;;5032557;28;19986;-73
2023/09/27 16:22:02;;;;;;;;;;;;;;;;;;5034059;28;20407;-74
2023/09/27 16:24:28;;;;;;;;;;;;;;;;;;5034432;28;19990;-73
2023/09/27 16:26:55;;;;;;;;;;;;;;;;;;5039244;28;20393;-72
2023/09/27 16:29:21;;;;;;;;;;;;;;;;;;5044659;28;19990;-73
2023/09/27 16:31:47;;;;;;;;;;;;;;;;;;5051899;28;19990;-73
2023/09/27 16:34:14;;;;;;;;;;;;;;;;;;5036100;28;19994;-72
2023/09/27 16:36:40;;;;;;;;;;;;;;;;;;5048604;28;20025;-70
2023/09/27 16:39:07;;;;;;;;;;;;;;;;;;5052234;28;19986;-73